Estherville, Iowa
Current Conditions -  °F | °C
As of 7:52 AM on Friday 24 Oct 2014 (Local Time) from KEST Reporting Station
Clear Clear  
Wind Chill:   Ceiling: Unl
Heat Index:   Visibility: 7mi
Dew Point:   Wind: 9mph
Humidity: 93%   Direction: 190°S
Pressure: 29.86"   Gusts: NA
Location:  43.4°N, 94.84°W
Report Text: KEST 241252Z AUTO 19008KT 7SM CLR 09/08 A2986 RMK AO2 SLP113 T00890078
Loading
Personal Weather Stations






























Interactive Weather Map New forecast layout! Learn more

10-Day Weather Forecast

Advertisements
Track Severe Weather on mobile